createdAt,value
2018-06-20T00:00:50.713Z,0
2018-06-20T00:01:52.709Z,0
2018-06-20T00:02:54.712Z,0
2018-06-20T00:03:56.713Z,0
2018-06-20T00:04:58.750Z,0
2018-06-20T00:06:00.708Z,0
2018-06-20T00:07:02.712Z,0
2018-06-20T00:08:05.004Z,0
2018-06-20T00:09:07.012Z,0
2018-06-20T00:10:09.013Z,0
2018-06-20T00:11:11.000Z,0
2018-06-20T00:12:12.995Z,0
2018-06-20T00:13:14.981Z,0
2018-06-20T00:14:16.975Z,0
2018-06-20T00:15:18.971Z,0
2018-06-20T00:16:20.967Z,0
2018-06-20T00:17:22.963Z,0
2018-06-20T00:18:24.957Z,0
2018-06-20T00:19:26.961Z,0
2018-06-20T00:20:29.325Z,0
2018-06-20T00:21:31.323Z,0
2018-06-20T00:22:33.329Z,0
2018-06-20T00:23:35.705Z,0
2018-06-20T00:24:37.984Z,0
2018-06-20T00:25:39.982Z,0
2018-06-20T00:26:41.983Z,0
2018-06-20T00:27:44.250Z,0
2018-06-20T00:28:46.630Z,0
2018-06-20T00:29:48.633Z,0
2018-06-20T00:30:50.905Z,0
2018-06-20T00:31:53.278Z,0
2018-06-20T00:32:55.287Z,0
2018-06-20T00:33:57.716Z,0
2018-06-20T00:34:59.759Z,0
2018-06-20T00:36:02.088Z,0
2018-06-20T00:37:04.690Z,0
2018-06-20T00:38:07.013Z,0
2018-06-20T00:39:09.436Z,0
2018-06-20T00:40:11.433Z,0
2018-06-20T00:41:13.430Z,0
2018-06-20T00:42:15.805Z,0
2018-06-20T00:43:17.794Z,0
2018-06-20T00:44:20.072Z,0
2018-06-20T00:45:22.073Z,0
2018-06-20T00:46:24.076Z,0
2018-06-20T00:47:26.082Z,0
2018-06-20T00:48:28.057Z,0
2018-06-20T00:49:30.058Z,0
2018-06-20T00:50:32.343Z,0
2018-06-20T00:51:34.341Z,0
2018-06-20T00:52:36.719Z,0
2018-06-20T00:53:39.090Z,0
2018-06-20T00:54:41.810Z,0
2018-06-20T00:55:43.841Z,0
2018-06-20T00:56:45.886Z,0
2018-06-20T00:57:47.906Z,0
2018-06-20T00:58:49.913Z,0
2018-06-20T00:59:51.912Z,0
2018-06-20T01:00:54.183Z,0
2018-06-20T01:01:56.176Z,0
2018-06-20T01:02:58.453Z,0
2018-06-20T01:04:00.480Z,0
2018-06-20T01:05:02.527Z,0
2018-06-20T01:06:04.558Z,0
2018-06-20T01:07:06.982Z,0
2018-06-20T01:08:09.326Z,0
2018-06-20T01:09:11.635Z,0
2018-06-20T01:10:13.624Z,0
2018-06-20T01:11:15.643Z,0
2018-06-20T01:12:17.855Z,0
2018-06-20T01:13:19.901Z,0
2018-06-20T01:14:22.176Z,0
2018-06-20T01:15:27.482Z,0
2018-06-20T01:16:30.897Z,0
2018-06-20T01:17:32.906Z,0
2018-06-20T01:18:34.926Z,0
2018-06-20T01:19:36.909Z,0
2018-06-20T01:20:38.932Z,0
2018-06-20T01:21:40.981Z,0
2018-06-20T01:22:43.013Z,0
2018-06-20T01:23:45.048Z,0
2018-06-20T01:24:47.385Z,0
2018-06-20T01:25:50.027Z,0
2018-06-20T01:26:52.055Z,0
2018-06-20T01:27:57.356Z,0
2018-06-20T01:28:59.352Z,0
2018-06-20T01:30:04.395Z,0
2018-06-20T01:31:06.401Z,0
2018-06-20T01:32:11.453Z,0
2018-06-20T01:33:13.488Z,0
2018-06-20T01:34:15.529Z,0
2018-06-20T01:35:17.573Z,0
2018-06-20T01:36:19.596Z,0
2018-06-20T01:37:21.642Z,0
2018-06-20T01:38:23.686Z,0
2018-06-20T01:39:25.715Z,0
2018-06-20T01:40:27.748Z,0
2018-06-20T01:41:29.781Z,0
2018-06-20T01:42:31.832Z,0
2018-06-20T01:43:33.851Z,0
2018-06-20T01:44:35.884Z,0
2018-06-20T01:45:38.319Z,0
2018-06-20T01:46:40.343Z,0
2018-06-20T01:47:42.670Z,0
2018-06-20T01:48:44.712Z,0
2018-06-20T01:49:46.754Z,0
2018-06-20T01:50:48.794Z,0
2018-06-20T01:51:51.115Z,0
2018-06-20T01:52:53.838Z,4
2018-06-20T01:53:56.150Z,4
2018-06-20T01:54:58.181Z,4
2018-06-20T01:56:00.217Z,0
2018-06-20T01:57:02.253Z,0
2018-06-20T01:58:04.286Z,4
2018-06-20T01:59:06.904Z,4
2018-06-20T02:00:09.225Z,4
2018-06-20T02:01:11.268Z,8
2018-06-20T02:02:13.290Z,4
2018-06-20T02:03:15.339Z,4
2018-06-20T02:04:17.373Z,8
2018-06-20T02:05:19.798Z,8
2018-06-20T02:06:21.827Z,8
2018-06-20T02:07:23.869Z,8
2018-06-20T02:08:26.212Z,12
2018-06-20T02:09:29.243Z,8
2018-06-20T02:10:31.650Z,12
2018-06-20T02:11:33.685Z,12
2018-06-20T02:12:35.712Z,16
2018-06-20T02:13:37.750Z,16
2018-06-20T02:14:39.793Z,16
2018-06-20T02:15:42.384Z,20
2018-06-20T02:16:44.439Z,24
2018-06-20T02:17:46.770Z,28
2018-06-20T02:18:48.790Z,32
2018-06-20T02:19:50.832Z,32
2018-06-20T02:20:52.868Z,36
2018-06-20T02:21:55.189Z,40
2018-06-20T02:22:57.216Z,44
2018-06-20T02:23:59.253Z,52
2018-06-20T02:25:01.596Z,60
2018-06-20T02:26:03.622Z,64
2018-06-20T02:27:05.667Z,72
2018-06-20T02:28:07.706Z,80
2018-06-20T02:29:09.742Z,92
2018-06-20T02:30:12.084Z,100
2018-06-20T02:31:14.789Z,108
2018-06-20T02:32:17.226Z,120
2018-06-20T02:33:19.853Z,136
2018-06-20T02:34:21.890Z,148
2018-06-20T02:35:23.914Z,164
2018-06-20T02:36:26.330Z,176
2018-06-20T02:37:28.379Z,192
2018-06-20T02:38:30.416Z,208
2018-06-20T02:39:32.452Z,228
2018-06-20T02:40:34.873Z,244
2018-06-20T02:41:37.500Z,264
2018-06-20T02:42:39.529Z,280
2018-06-20T02:43:41.849Z,304
2018-06-20T02:44:43.902Z,324
2018-06-20T02:45:45.938Z,344
2018-06-20T02:46:48.263Z,372
2018-06-20T02:47:50.686Z,396
2018-06-20T02:48:52.725Z,420
2018-06-20T02:49:55.144Z,448
2018-06-20T02:50:57.187Z,472
2018-06-20T02:51:59.239Z,500
2018-06-20T02:53:01.867Z,528
2018-06-20T02:54:03.903Z,560
2018-06-20T02:55:06.324Z,588
2018-06-20T02:56:09.031Z,620
2018-06-20T02:57:12.069Z,652
2018-06-20T02:58:14.098Z,680
2018-06-20T02:59:16.125Z,712
2018-06-20T03:00:18.163Z,748
2018-06-20T03:01:20.194Z,776
2018-06-20T03:02:22.227Z,812
2018-06-20T03:03:24.273Z,844
2018-06-20T03:04:26.602Z,880
2018-06-20T03:05:28.641Z,912
2018-06-20T03:06:30.949Z,944
2018-06-20T03:07:33.756Z,984
2018-06-20T03:08:35.798Z,1016
2018-06-20T03:09:37.839Z,1056
2018-06-20T03:10:40.185Z,1092
2018-06-20T03:11:42.219Z,1124
2018-06-20T03:12:44.250Z,1160
2018-06-20T03:13:46.579Z,1196
2018-06-20T03:14:48.614Z,1232
2018-06-20T03:15:50.654Z,1268
2018-06-20T03:16:52.704Z,1300
2018-06-20T03:17:55.014Z,1336
2018-06-20T03:18:57.054Z,1372
2018-06-20T03:19:59.404Z,1408
2018-06-20T03:21:01.434Z,1444
2018-06-20T03:22:03.476Z,1480
2018-06-20T03:23:05.511Z,1512
2018-06-20T03:24:07.552Z,1548
2018-06-20T03:25:09.879Z,1588
2018-06-20T03:26:11.917Z,1620
2018-06-20T03:27:13.974Z,1660
2018-06-20T03:28:16.360Z,1696
2018-06-20T03:29:18.392Z,1732
2018-06-20T03:30:20.415Z,1764
2018-06-20T03:31:22.455Z,1800
2018-06-20T03:32:24.517Z,1832
2018-06-20T03:33:26.557Z,1864
2018-06-20T03:34:28.883Z,1896
2018-06-20T03:35:31.496Z,1928
2018-06-20T03:36:33.522Z,1964
2018-06-20T03:37:35.832Z,1992
2018-06-20T03:38:38.176Z,2024
2018-06-20T03:39:40.222Z,2048
2018-06-20T03:40:42.258Z,2084
2018-06-20T03:41:44.287Z,2112
2018-06-20T03:42:46.616Z,2144
2018-06-20T03:43:48.947Z,2168
2018-06-20T03:44:50.981Z,2196
2018-06-20T03:45:53.014Z,2228
2018-06-20T03:46:55.052Z,2260
2018-06-20T03:47:57.080Z,2288
2018-06-20T03:48:59.409Z,2324
2018-06-20T03:50:01.819Z,2356
2018-06-20T03:51:03.860Z,2388
2018-06-20T03:52:05.896Z,2416
2018-06-20T03:53:08.316Z,2448
2018-06-20T03:54:10.642Z,2476
2018-06-20T03:55:13.061Z,2500
2018-06-20T03:56:15.096Z,2520
2018-06-20T03:57:17.137Z,2548
2018-06-20T03:58:19.450Z,2572
2018-06-20T03:59:21.496Z,2596
2018-06-20T04:00:23.525Z,2616
2018-06-20T04:01:25.561Z,2640
2018-06-20T04:02:27.590Z,2664
2018-06-20T04:03:29.629Z,2692
2018-06-20T04:04:31.670Z,2716
2018-06-20T04:05:33.687Z,2740
2018-06-20T04:06:36.031Z,2768
2018-06-20T04:07:38.071Z,2792
2018-06-20T04:08:40.396Z,2820
2018-06-20T04:09:42.724Z,2844
2018-06-20T04:10:44.768Z,2868
2018-06-20T04:11:46.798Z,2900
2018-06-20T04:12:48.909Z,2932
2018-06-20T04:13:52.449Z,2956
2018-06-20T04:14:54.490Z,2984
2018-06-20T04:15:56.528Z,3008
2018-06-20T04:16:58.556Z,3036
2018-06-20T04:18:00.603Z,3056
2018-06-20T04:19:02.632Z,3080
2018-06-20T04:20:04.678Z,3108
2018-06-20T04:21:06.704Z,3132
2018-06-20T04:22:08.731Z,3156
2018-06-20T04:23:11.086Z,3184
2018-06-20T04:24:13.696Z,3204
2018-06-20T04:25:15.733Z,3236
2018-06-20T04:26:18.047Z,3256
2018-06-20T04:27:20.078Z,3276
2018-06-20T04:28:22.121Z,3300
2018-06-20T04:29:24.169Z,3320
2018-06-20T04:30:26.200Z,3340
2018-06-20T04:31:28.246Z,3368
2018-06-20T04:32:30.562Z,3392
2018-06-20T04:33:32.601Z,3416
2018-06-20T04:34:34.656Z,3444
2018-06-20T04:35:37.005Z,3472
2018-06-20T04:36:39.067Z,3496
2018-06-20T04:37:41.086Z,3528
2018-06-20T04:38:43.107Z,3548
2018-06-20T04:39:45.143Z,3572
2018-06-20T04:40:47.471Z,3592
2018-06-20T04:41:49.895Z,3616
2018-06-20T04:42:52.222Z,3636
2018-06-20T04:43:54.253Z,3652
2018-06-20T04:44:56.293Z,3664
2018-06-20T04:45:58.331Z,3684
2018-06-20T04:47:00.367Z,3696
2018-06-20T04:48:02.421Z,3724
2018-06-20T04:49:04.451Z,3744
2018-06-20T04:50:06.492Z,3764
2018-06-20T04:51:08.531Z,3776
2018-06-20T04:52:11.154Z,3796
2018-06-20T04:53:13.195Z,3820
2018-06-20T04:54:15.225Z,3840
2018-06-20T04:55:17.270Z,3860
2018-06-20T04:56:19.599Z,3884
2018-06-20T04:57:21.915Z,3904
2018-06-20T04:58:23.960Z,3920
2018-06-20T04:59:25.993Z,3940
2018-06-20T05:00:28.039Z,3964
2018-06-20T05:01:30.371Z,3988
2018-06-20T05:02:32.781Z,4008
2018-06-20T05:03:34.809Z,4028
2018-06-20T05:04:37.146Z,4044
2018-06-20T05:05:39.232Z,4068
2018-06-20T05:06:41.220Z,4080
2018-06-20T05:07:43.257Z,4112
2018-06-20T05:08:45.291Z,4140
2018-06-20T05:09:47.338Z,4164
2018-06-20T05:10:49.360Z,4200
2018-06-20T05:11:51.722Z,4240
2018-06-20T05:12:54.047Z,4264
2018-06-20T05:13:56.087Z,4280
2018-06-20T05:14:58.133Z,4300
2018-06-20T05:16:00.175Z,4320
2018-06-20T05:17:02.612Z,4340
2018-06-20T05:18:04.658Z,4360
2018-06-20T05:19:06.679Z,4376
2018-06-20T05:20:08.733Z,4396
2018-06-20T05:21:11.075Z,4424
2018-06-20T05:22:13.099Z,4460
2018-06-20T05:23:15.145Z,4488
2018-06-20T05:24:17.470Z,4508
2018-06-20T05:25:20.177Z,4524
2018-06-20T05:26:22.215Z,4544
2018-06-20T05:27:24.251Z,4580
2018-06-20T05:28:26.304Z,4612
2018-06-20T05:29:28.335Z,4648
2018-06-20T05:30:30.385Z,4688
2018-06-20T05:31:32.720Z,4732
2018-06-20T05:32:34.762Z,4780
2018-06-20T05:33:37.182Z,4816
2018-06-20T05:34:39.230Z,4876
2018-06-20T05:35:41.268Z,4904
2018-06-20T05:36:43.315Z,4912
2018-06-20T05:37:45.358Z,4932
2018-06-20T05:38:47.789Z,4948
2018-06-20T05:39:50.123Z,4928
2018-06-20T05:40:52.169Z,4912
2018-06-20T05:41:54.525Z,4928
2018-06-20T05:42:56.569Z,4964
2018-06-20T05:43:58.604Z,5024
2018-06-20T05:45:00.653Z,5096
2018-06-20T05:46:02.689Z,5160
2018-06-20T05:47:04.723Z,5240
2018-06-20T05:48:06.765Z,5320
2018-06-20T05:49:08.811Z,5352
2018-06-20T05:50:10.851Z,5408
2018-06-20T05:51:13.166Z,5508
2018-06-20T05:52:15.203Z,5576
2018-06-20T05:53:17.253Z,5580
2018-06-20T05:54:19.565Z,5556
2018-06-20T05:55:21.612Z,5600
2018-06-20T05:56:23.665Z,5632
2018-06-20T05:57:25.987Z,5672
2018-06-20T05:58:28.035Z,5724
2018-06-20T05:59:30.354Z,5804
2018-06-20T06:00:32.396Z,5868
2018-06-20T06:01:34.717Z,5872
2018-06-20T06:02:36.751Z,5872
2018-06-20T06:03:38.809Z,5968
2018-06-20T06:04:40.847Z,5916
2018-06-20T06:05:43.184Z,5848
2018-06-20T06:06:45.228Z,5836
2018-06-20T06:07:47.264Z,5812
2018-06-20T06:08:49.295Z,5784
2018-06-20T06:09:51.343Z,5776
2018-06-20T06:10:53.383Z,5780
2018-06-20T06:11:55.490Z,5816
2018-06-20T06:12:57.466Z,5840
2018-06-20T06:13:59.505Z,5832
2018-06-20T06:15:01.549Z,5812
2018-06-20T06:16:03.593Z,5800
2018-06-20T06:17:05.756Z,5768
2018-06-20T06:18:07.685Z,5768
2018-06-20T06:19:09.731Z,5768
2018-06-20T06:20:12.059Z,5764
2018-06-20T06:21:14.392Z,5796
2018-06-20T06:22:16.429Z,5824
2018-06-20T06:23:18.477Z,5856
2018-06-20T06:24:20.507Z,5904
2018-06-20T06:25:22.560Z,5932
2018-06-20T06:26:24.985Z,5992
2018-06-20T06:27:27.034Z,6032
2018-06-20T06:28:29.091Z,6036
2018-06-20T06:29:31.113Z,6052
2018-06-20T06:30:33.222Z,6092
2018-06-20T06:31:35.202Z,6088
2018-06-20T06:32:37.261Z,6100
2018-06-20T06:33:39.342Z,6100
2018-06-20T06:34:41.655Z,6084
2018-06-20T06:35:44.097Z,6064
2018-06-20T06:36:46.138Z,6060
2018-06-20T06:37:48.302Z,6084
2018-06-20T06:38:50.636Z,6108
2018-06-20T06:39:52.674Z,6136
2018-06-20T06:40:54.734Z,6156
2018-06-20T06:41:57.657Z,6168
2018-06-20T06:42:59.697Z,6204
2018-06-20T06:44:02.163Z,6232
2018-06-20T06:45:04.181Z,6296
2018-06-20T06:46:06.226Z,6344
2018-06-20T06:47:08.271Z,6424
2018-06-20T06:48:10.310Z,6456
2018-06-20T06:49:12.354Z,6516
2018-06-20T06:50:14.390Z,6520
2018-06-20T06:51:16.434Z,6512
2018-06-20T06:52:19.898Z,6508
2018-06-20T06:53:21.922Z,6476
2018-06-20T06:54:23.920Z,6516
2018-06-20T06:55:27.371Z,6632
2018-06-20T06:56:29.408Z,6652
2018-06-20T06:57:31.456Z,6644
2018-06-20T06:58:36.504Z,6704
2018-06-20T06:59:38.553Z,6724
2018-06-20T07:00:40.613Z,6804
2018-06-20T07:01:44.422Z,6936
2018-06-20T07:02:46.566Z,7032
2018-06-20T07:03:49.061Z,7292
2018-06-20T07:04:51.057Z,7532
2018-06-20T07:05:53.341Z,7544
2018-06-20T07:06:55.341Z,7620
2018-06-20T07:07:57.394Z,7604
2018-06-20T07:08:59.435Z,7608
2018-06-20T07:10:01.467Z,7696
2018-06-20T07:11:03.802Z,7748
2018-06-20T07:12:08.870Z,7704
2018-06-20T07:13:10.911Z,7740
2018-06-20T07:14:13.490Z,7800
2018-06-20T07:15:15.506Z,7796
2018-06-20T07:16:17.547Z,7740
2018-06-20T07:17:20.191Z,7708
2018-06-20T07:18:22.226Z,7700
2018-06-20T07:19:24.233Z,7696
2018-06-20T07:20:26.286Z,7764
2018-06-20T07:21:28.298Z,7820
2018-06-20T07:22:30.346Z,7844
2018-06-20T07:23:32.682Z,7884
2018-06-20T07:24:35.107Z,7884
2018-06-20T07:25:37.951Z,7868
2018-06-20T07:26:39.998Z,7820
2018-06-20T07:27:42.044Z,7844
2018-06-20T07:28:44.088Z,7916
2018-06-20T07:29:46.169Z,7976
2018-06-20T07:30:48.195Z,8036
2018-06-20T07:31:50.238Z,8132
2018-06-20T07:32:52.281Z,8220
2018-06-20T07:33:54.331Z,8240
2018-06-20T07:34:56.762Z,8348
2018-06-20T07:35:59.012Z,8408
2018-06-20T07:37:01.912Z,8436
2018-06-20T07:38:03.963Z,8592
2018-06-20T07:39:06.002Z,8824
2018-06-20T07:40:08.338Z,8944
2018-06-20T07:41:10.390Z,8952
2018-06-20T07:42:12.426Z,9124
2018-06-20T07:43:14.754Z,9572
2018-06-20T07:44:16.802Z,9932
2018-06-20T07:45:18.912Z,10292
2018-06-20T07:46:20.984Z,11016
2018-06-20T07:47:23.337Z,11688
2018-06-20T07:48:25.732Z,12404
2018-06-20T07:49:28.059Z,13120
2018-06-20T07:50:30.091Z,13212
2018-06-20T07:51:32.137Z,13712
2018-06-20T07:52:34.474Z,14896
2018-06-20T07:53:36.520Z,15840
2018-06-20T07:54:38.572Z,15664
2018-06-20T07:55:40.611Z,15772
2018-06-20T07:56:42.657Z,14588
2018-06-20T07:57:44.693Z,13720
2018-06-20T07:58:46.736Z,13160
2018-06-20T07:59:48.797Z,13064
2018-06-20T08:00:50.906Z,13204
2018-06-20T08:01:52.881Z,13780
2018-06-20T08:02:54.932Z,13884
2018-06-20T08:03:56.973Z,14792
2018-06-20T08:04:59.013Z,16252
2018-06-20T08:06:01.352Z,16612
2018-06-20T08:07:03.413Z,19392
2018-06-20T08:08:05.467Z,22048
2018-06-20T08:09:07.500Z,23872
2018-06-20T08:10:09.550Z,24448
2018-06-20T08:11:11.587Z,22528
2018-06-20T08:12:14.313Z,21536
2018-06-20T08:13:16.357Z,20416
2018-06-20T08:14:18.779Z,20256
2018-06-20T08:15:20.834Z,20320
2018-06-20T08:16:23.164Z,23040
2018-06-20T08:17:25.208Z,25152
2018-06-20T08:18:27.257Z,27040
2018-06-20T08:19:30.074Z,26784
2018-06-20T08:20:32.132Z,27232
2018-06-20T08:21:34.446Z,24544
2018-06-20T08:22:36.493Z,25472
2018-06-20T08:23:38.550Z,26880
2018-06-20T08:24:40.595Z,26464
2018-06-20T08:25:42.699Z,26400
2018-06-20T08:26:45.516Z,26336
2018-06-20T08:27:47.569Z,27840
2018-06-20T08:28:49.922Z,30080
2018-06-20T08:29:52.257Z,24032
2018-06-20T08:30:54.314Z,21216
2018-06-20T08:31:56.369Z,21184
2018-06-20T08:32:58.400Z,24512
2018-06-20T08:34:00.445Z,31424
2018-06-20T08:35:02.494Z,33152
2018-06-20T08:36:04.538Z,50176
2018-06-20T08:37:06.590Z,29600
2018-06-20T08:38:09.033Z,22816
2018-06-20T08:39:11.080Z,24768
2018-06-20T08:40:13.114Z,27712
2018-06-20T08:41:15.154Z,33056
2018-06-20T08:42:17.210Z,48352
2018-06-20T08:43:19.258Z,39136
2018-06-20T08:44:21.316Z,39328
2018-06-20T08:45:23.651Z,46144
2018-06-20T08:46:25.695Z,59040
2018-06-20T08:47:27.740Z,45600
2018-06-20T08:48:30.461Z,39232
2018-06-20T08:49:32.505Z,39680
2018-06-20T08:50:34.857Z,42688
2018-06-20T08:51:36.913Z,47104
2018-06-20T08:52:39.253Z,49632
2018-06-20T08:53:41.298Z,46496
2018-06-20T08:54:43.347Z,53312
2018-06-20T08:55:45.781Z,55968
2018-06-20T08:56:47.834Z,89248
2018-06-20T08:57:49.886Z,97152
2018-06-20T08:58:51.935Z,89600
2018-06-20T08:59:53.984Z,39232
2018-06-20T09:00:56.033Z,39936
2018-06-20T09:01:58.359Z,56224
2018-06-20T09:03:19.617Z,49888
2018-06-20T09:04:21.669Z,57504
2018-06-20T09:05:24.001Z,48608
2018-06-20T09:06:26.061Z,52704
2018-06-20T09:07:28.095Z,45312
2018-06-20T09:08:30.444Z,66144
2018-06-20T09:09:33.224Z,78080
2018-06-20T09:10:35.272Z,98304
2018-06-20T09:11:37.617Z,87200
2018-06-20T09:12:40.253Z,85376
2018-06-20T09:13:42.298Z,79840
2018-06-20T09:14:44.354Z,61184
2018-06-20T09:15:46.400Z,98368
2018-06-20T09:16:48.455Z,108320
2018-06-20T09:17:50.501Z,35840
2018-06-20T09:18:52.547Z,31840
2018-06-20T09:19:54.897Z,30240
2018-06-20T09:20:57.256Z,27616
2018-06-20T09:21:59.360Z,25952
2018-06-20T09:23:01.352Z,24160
2018-06-20T09:24:03.990Z,24416
2018-06-20T09:25:06.040Z,24736
2018-06-20T09:26:08.087Z,25600
2018-06-20T09:27:10.132Z,25984
2018-06-20T09:28:12.176Z,25408
2018-06-20T09:29:14.252Z,23360
2018-06-20T09:30:16.576Z,21280
2018-06-20T09:31:18.636Z,18976
2018-06-20T09:32:21.259Z,16444
2018-06-20T09:33:23.309Z,16116
2018-06-20T09:34:25.360Z,16112
2018-06-20T09:35:27.408Z,17196
2018-06-20T09:36:29.757Z,18592
2018-06-20T09:37:31.807Z,18784
2018-06-20T09:38:34.255Z,18240
2018-06-20T09:39:36.617Z,18400
2018-06-20T09:40:38.646Z,19424
2018-06-20T09:41:40.700Z,20928
2018-06-20T09:42:42.745Z,23424
2018-06-20T09:43:44.796Z,27072
2018-06-20T09:44:46.916Z,29664
2018-06-20T09:45:48.908Z,29920
2018-06-20T09:46:50.946Z,28896
2018-06-20T09:47:53.002Z,28160
2018-06-20T09:48:55.043Z,27936
2018-06-20T09:49:57.093Z,28288
2018-06-20T09:50:59.139Z,28448
2018-06-20T09:52:01.181Z,26944
2018-06-20T09:53:03.512Z,26080
2018-06-20T09:54:05.583Z,26464
2018-06-20T09:55:07.624Z,25472
2018-06-20T09:56:09.675Z,23808
2018-06-20T09:57:11.722Z,24320
2018-06-20T09:58:13.772Z,25632
2018-06-20T09:59:15.815Z,28928
2018-06-20T10:00:17.865Z,34784
2018-06-20T10:01:20.499Z,35008
2018-06-20T10:02:22.558Z,34688
2018-06-20T10:03:24.883Z,37152
2018-06-20T10:04:26.931Z,33120
2018-06-20T10:05:28.988Z,34784
2018-06-20T10:06:31.055Z,38624
2018-06-20T10:07:33.800Z,40064
2018-06-20T10:08:35.849Z,37632
2018-06-20T10:09:37.898Z,47200
2018-06-20T10:10:39.954Z,55328
2018-06-20T10:11:42.004Z,26304
2018-06-20T10:12:44.045Z,17652
2018-06-20T10:13:46.100Z,15668
2018-06-20T10:14:48.150Z,16560
2018-06-20T10:15:50.203Z,17848
2018-06-20T10:16:52.569Z,16544
2018-06-20T10:17:54.619Z,16948
2018-06-20T10:18:56.672Z,16320
2018-06-20T10:19:58.706Z,15672
2018-06-20T10:21:00.769Z,15072
2018-06-20T10:22:03.179Z,16092
2018-06-20T10:23:05.901Z,14604
2018-06-20T10:24:07.950Z,10308
2018-06-20T10:25:09.996Z,9048
2018-06-20T10:26:12.054Z,8588
2018-06-20T10:27:14.088Z,8648
2018-06-20T10:28:16.132Z,8728
2018-06-20T10:29:18.181Z,8448
2018-06-20T10:30:20.224Z,6624
2018-06-20T10:31:22.277Z,5540
2018-06-20T10:32:24.320Z,4900
2018-06-20T10:33:26.712Z,4720
2018-06-20T10:34:28.705Z,4596
2018-06-20T10:35:30.740Z,4872
2018-06-20T10:36:32.807Z,5568
2018-06-20T10:37:35.149Z,6400
2018-06-20T10:38:37.191Z,6616
2018-06-20T10:39:39.241Z,6408
2018-06-20T10:40:41.284Z,5988
2018-06-20T10:41:43.337Z,5960
2018-06-20T10:42:45.387Z,5712
2018-06-20T10:43:47.429Z,5448
2018-06-20T10:44:49.477Z,6784
2018-06-20T10:45:51.539Z,9000
2018-06-20T10:46:53.967Z,8920
2018-06-20T10:47:56.023Z,8276
2018-06-20T10:48:58.071Z,9636
2018-06-20T10:50:00.124Z,11568
2018-06-20T10:51:02.879Z,12740
2018-06-20T10:52:05.586Z,11504
2018-06-20T10:53:07.649Z,11500
2018-06-20T10:54:09.697Z,12372
2018-06-20T10:55:11.746Z,13864
2018-06-20T10:56:14.390Z,14480
2018-06-20T10:57:16.439Z,11204
2018-06-20T10:58:18.484Z,14112
2018-06-20T10:59:20.532Z,16592
2018-06-20T11:00:22.858Z,16728
2018-06-20T11:01:24.912Z,18720
2018-06-20T11:02:26.965Z,19584
2018-06-20T11:03:29.018Z,19808
2018-06-20T11:04:31.063Z,19136
2018-06-20T11:05:33.114Z,18336
2018-06-20T11:06:35.553Z,17680
2018-06-20T11:07:37.590Z,19168
2018-06-20T11:08:39.643Z,19712
2018-06-20T11:09:41.754Z,18336
2018-06-20T11:10:44.066Z,18056
2018-06-20T11:11:46.122Z,17668
2018-06-20T11:12:48.556Z,17744
2018-06-20T11:13:50.969Z,18624
2018-06-20T11:14:53.355Z,19040
2018-06-20T11:15:55.699Z,19328
2018-06-20T11:16:57.756Z,20416
2018-06-20T11:17:59.799Z,21984
2018-06-20T11:19:01.848Z,23424
2018-06-20T11:20:04.189Z,24352
2018-06-20T11:21:06.232Z,23552
2018-06-20T11:22:08.280Z,22336
2018-06-20T11:23:10.348Z,21600
2018-06-20T11:24:12.700Z,21632
2018-06-20T11:25:14.751Z,23296
2018-06-20T11:26:16.792Z,25024
2018-06-20T11:27:18.863Z,26976
2018-06-20T11:28:20.891Z,28960
2018-06-20T11:29:22.980Z,29568
2018-06-20T11:30:25.433Z,31744
2018-06-20T11:31:27.880Z,32352
2018-06-20T11:32:29.930Z,32288
2018-06-20T11:33:31.991Z,32320
2018-06-20T11:34:34.187Z,31840
2018-06-20T11:35:36.237Z,31872
2018-06-20T11:36:38.285Z,31168
2018-06-20T11:37:40.338Z,30912
2018-06-20T11:38:42.670Z,31712
2018-06-20T11:39:44.731Z,30976
2018-06-20T11:40:47.187Z,32288
2018-06-20T11:41:49.237Z,33152
2018-06-20T11:42:51.277Z,32288
2018-06-20T11:43:53.329Z,32256
2018-06-20T11:44:55.371Z,33600
2018-06-20T11:45:57.424Z,35680
2018-06-20T11:46:59.537Z,38752
2018-06-20T11:48:02.234Z,43840
2018-06-20T11:49:04.290Z,43040
2018-06-20T11:50:06.329Z,45248
2018-06-20T11:51:08.681Z,52384
2018-06-20T11:52:10.737Z,100864
2018-06-20T11:53:12.788Z,63264
2018-06-20T11:54:14.841Z,145344
2018-06-20T11:55:16.886Z,145952
2018-06-20T11:56:18.943Z,135872
2018-06-20T11:57:21.003Z,142080
2018-06-20T11:58:23.051Z,92224
2018-06-20T11:59:25.107Z,69632
2018-06-20T12:00:27.824Z,61376
2018-06-20T12:01:29.869Z,66144
2018-06-20T12:02:31.928Z,72704
2018-06-20T12:03:33.984Z,100096
2018-06-20T12:04:36.034Z,64864
2018-06-20T12:05:38.101Z,58400
2018-06-20T12:06:40.143Z,52576
2018-06-20T12:07:42.195Z,54560
2018-06-20T12:08:44.246Z,56128
2018-06-20T12:09:46.611Z,51616
2018-06-20T12:10:48.672Z,72192
2018-06-20T12:11:51.011Z,68096
2018-06-20T12:12:53.059Z,81760
2018-06-20T12:13:55.537Z,61632
2018-06-20T12:14:57.874Z,54624
2018-06-20T12:15:59.938Z,50432
2018-06-20T12:17:01.990Z,51264
2018-06-20T12:18:04.729Z,58112
2018-06-20T12:19:06.781Z,63520
2018-06-20T12:20:08.841Z,49312
2018-06-20T12:21:10.893Z,48864
2018-06-20T12:22:12.945Z,67072
2018-06-20T12:23:15.005Z,108320
2018-06-20T12:24:17.055Z,48800
2018-06-20T12:25:19.098Z,43136
2018-06-20T12:26:21.153Z,47968
2018-06-20T12:27:23.214Z,50272
2018-06-20T12:28:25.273Z,59968
2018-06-20T12:29:27.617Z,94912
2018-06-20T12:30:29.686Z,119456
2018-06-20T12:31:31.742Z,112992
2018-06-20T12:32:33.781Z,130752
2018-06-20T12:33:35.838Z,121088
2018-06-20T12:34:37.890Z,110176
2018-06-20T12:35:40.515Z,39104
2018-06-20T12:36:42.570Z,128480
2018-06-20T12:37:44.554Z,112672
2018-06-20T12:38:46.560Z,34144
2018-06-20T12:39:48.599Z,45600
2018-06-20T12:40:50.649Z,120544
2018-06-20T12:41:52.640Z,119616
2018-06-20T12:42:54.972Z,39520
2018-06-20T12:43:56.981Z,128128
2018-06-20T12:44:59.287Z,98560
2018-06-20T12:46:01.356Z,89312
2018-06-20T12:47:03.505Z,38784
2018-06-20T12:48:05.459Z,36576
2018-06-20T12:49:07.777Z,75488
2018-06-20T12:50:09.806Z,91904
2018-06-20T12:51:11.893Z,111840
2018-06-20T12:52:13.923Z,34560
2018-06-20T12:53:16.016Z,35936
2018-06-20T12:54:18.041Z,38496
2018-06-20T12:55:20.063Z,33216
2018-06-20T12:56:22.075Z,96640
2018-06-20T12:57:24.101Z,25280
2018-06-20T12:58:26.173Z,33408
2018-06-20T12:59:28.192Z,76992
2018-06-20T13:00:30.228Z,36704
2018-06-20T13:01:32.639Z,34464
2018-06-20T13:02:34.965Z,30880
2018-06-20T13:03:37.291Z,33376
2018-06-20T13:04:40.125Z,30944
2018-06-20T13:05:43.105Z,33344
2018-06-20T13:06:45.306Z,28352
2018-06-20T13:07:47.560Z,32352
2018-06-20T13:08:49.647Z,36896
2018-06-20T13:09:53.060Z,85760
2018-06-20T13:10:55.132Z,36320
2018-06-20T13:11:58.133Z,58816
2018-06-20T13:13:00.409Z,67872
2018-06-20T13:14:02.952Z,110432
2018-06-20T13:15:04.985Z,104608
2018-06-20T13:16:07.485Z,41536
2018-06-20T13:17:09.549Z,34400
2018-06-20T13:18:11.760Z,37920
2018-06-20T13:19:13.876Z,27328
2018-06-20T13:20:16.110Z,24608
2018-06-20T13:21:19.785Z,22816
2018-06-20T13:22:21.796Z,27264
2018-06-20T13:23:24.168Z,40128
2018-06-20T13:24:26.229Z,50688
2018-06-20T13:25:28.435Z,46400
2018-06-20T13:26:30.487Z,67328
2018-06-20T13:27:32.589Z,36800
2018-06-20T13:28:35.474Z,31136
2018-06-20T13:29:38.163Z,85600
2018-06-20T13:30:40.199Z,121472
2018-06-20T13:31:42.555Z,36672
2018-06-20T13:32:44.686Z,30688
2018-06-20T13:33:46.800Z,94400
2018-06-20T13:34:49.541Z,111616
2018-06-20T13:35:51.625Z,111680
2018-06-20T13:36:54.459Z,26592
2018-06-20T13:37:56.550Z,95136
2018-06-20T13:38:59.520Z,95232
2018-06-20T13:40:01.599Z,26080
2018-06-20T13:41:04.158Z,20192
2018-06-20T13:42:06.238Z,19680
2018-06-20T13:43:08.340Z,17724
2018-06-20T13:44:10.561Z,19360
2018-06-20T13:45:12.627Z,22816
2018-06-20T13:46:15.733Z,42560
2018-06-20T13:47:18.191Z,73568
2018-06-20T13:48:20.218Z,37216
2018-06-20T13:49:22.290Z,22400
2018-06-20T13:50:25.345Z,17588
2018-06-20T13:51:27.420Z,18624